createdAt,value
2023-04-14T00:00:12.340Z,100.00
2023-04-14T00:01:15.730Z,100.00
2023-04-14T00:02:17.702Z,100.00
2023-04-14T00:03:20.242Z,100.00
2023-04-14T00:04:23.868Z,100.00
2023-04-14T00:05:32.183Z,100.00
2023-04-14T00:06:35.018Z,100.00
2023-04-14T00:07:36.958Z,100.00
2023-04-14T00:08:39.036Z,100.00
2023-04-14T00:09:40.891Z,100.00
2023-04-14T00:10:43.085Z,100.00
2023-04-14T00:11:45.052Z,100.00
2023-04-14T00:12:46.910Z,100.00
2023-04-14T00:13:48.776Z,100.00
2023-04-14T00:14:50.634Z,100.00
2023-04-14T00:15:52.833Z,100.00
2023-04-14T00:16:55.142Z,100.00
2023-04-14T00:17:57.148Z,100.00
2023-04-14T00:18:59.382Z,100.00
2023-04-14T00:20:01.937Z,100.00
2023-04-14T00:21:06.161Z,100.00
2023-04-14T00:22:08.065Z,100.00
2023-04-14T00:23:10.102Z,100.00
2023-04-14T00:24:12.018Z,100.00
2023-04-14T00:25:14.039Z,100.00
2023-04-14T00:26:17.019Z,100.00
2023-04-14T00:27:19.115Z,100.00
2023-04-14T00:28:21.064Z,100.00
2023-04-14T00:29:23.060Z,100.00
2023-04-14T00:30:25.155Z,100.00
2023-04-14T00:31:27.187Z,100.00
2023-04-14T00:32:29.213Z,100.00
2023-04-14T00:33:31.406Z,100.00
2023-04-14T00:34:35.125Z,100.00
2023-04-14T00:35:37.417Z,100.00
2023-04-14T00:36:39.400Z,100.00
2023-04-14T00:37:43.104Z,100.00
2023-04-14T00:38:45.157Z,100.00
2023-04-14T00:39:47.074Z,100.00
2023-04-14T00:40:49.146Z,100.00
2023-04-14T00:41:51.136Z,100.00
2023-04-14T00:42:53.207Z,100.00
2023-04-14T00:43:55.277Z,100.00
2023-04-14T00:44:57.160Z,100.00
2023-04-14T00:45:59.267Z,100.00
2023-04-14T00:47:03.865Z,100.00
2023-04-14T00:48:06.413Z,100.00
2023-04-14T00:49:09.003Z,100.00
2023-04-14T00:50:13.339Z,100.00
2023-04-14T00:51:16.009Z,100.00
2023-04-14T00:52:21.379Z,100.00
2023-04-14T00:53:23.398Z,100.00
2023-04-14T00:54:26.956Z,100.00
2023-04-14T00:55:29.796Z,100.00
2023-04-14T00:56:32.772Z,100.00
2023-04-14T00:57:37.529Z,100.00
2023-04-14T00:58:42.448Z,100.00
2023-04-14T00:59:44.389Z,100.00
2023-04-14T01:00:47.047Z,100.00
2023-04-14T01:01:48.977Z,100.00
2023-04-14T01:02:51.234Z,100.00
2023-04-14T01:03:54.260Z,100.00
2023-04-14T01:04:56.443Z,99.92
2023-04-14T01:05:58.738Z,99.68
2023-04-14T01:07:00.874Z,100.00
2023-04-14T01:08:04.425Z,100.00
2023-04-14T01:09:07.660Z,100.00
2023-04-14T01:10:10.781Z,99.61
2023-04-14T01:11:31.589Z,100.00
2023-04-14T01:13:03.187Z,99.75
2023-04-14T01:14:35.253Z,99.72
2023-04-14T01:15:49.186Z,99.47
2023-04-14T01:16:55.024Z,98.90
2023-04-14T01:18:03.552Z,98.78
2023-04-14T01:19:25.695Z,99.14
2023-04-14T01:20:34.884Z,98.78
2023-04-14T01:21:39.986Z,99.34
2023-04-14T01:22:55.152Z,100.00
2023-04-14T01:24:18.039Z,100.00
2023-04-14T01:25:33.054Z,100.00
2023-04-14T01:26:35.398Z,100.00
2023-04-14T01:27:56.503Z,100.00
2023-04-14T01:29:02.421Z,100.00
2023-04-14T01:32:03.935Z,100.00
2023-04-14T01:33:10.001Z,100.00
2023-04-14T01:34:22.737Z,100.00
2023-04-14T01:35:43.610Z,100.00
2023-04-14T01:36:49.487Z,100.00
2023-04-14T01:37:58.338Z,100.00
2023-04-14T01:39:04.057Z,100.00
2023-04-14T01:40:12.779Z,100.00
2023-04-14T01:41:17.769Z,100.00
2023-04-14T01:42:23.779Z,100.00
2023-04-14T01:43:30.075Z,100.00
2023-04-14T01:44:34.424Z,100.00
2023-04-14T01:45:40.921Z,100.00
2023-04-14T01:46:44.470Z,100.00
2023-04-14T01:47:47.451Z,100.00
2023-04-14T01:48:50.511Z,100.00
2023-04-14T01:49:53.619Z,100.00
2023-04-14T01:50:57.916Z,100.00
2023-04-14T01:52:03.390Z,100.00
2023-04-14T01:53:08.357Z,100.00
2023-04-14T01:54:12.589Z,100.00
2023-04-14T01:55:18.277Z,100.00
2023-04-14T01:56:21.805Z,100.00
2023-04-14T01:57:28.517Z,100.00
2023-04-14T01:58:31.766Z,100.00
2023-04-14T01:59:35.355Z,100.00
2023-04-14T02:00:40.319Z,100.00
2023-04-14T02:01:45.523Z,100.00
2023-04-14T02:02:50.246Z,100.00
2023-04-14T02:03:53.136Z,100.00
2023-04-14T02:04:56.343Z,100.00
2023-04-14T02:06:00.412Z,100.00
2023-04-14T02:07:05.136Z,100.00
2023-04-14T02:08:10.012Z,100.00
2023-04-14T02:09:13.211Z,100.00
2023-04-14T02:10:19.533Z,100.00
2023-04-14T02:11:23.219Z,100.00
2023-04-14T02:12:26.935Z,100.00
2023-04-14T02:13:31.070Z,100.00
2023-04-14T02:14:35.176Z,100.00
2023-04-14T02:15:37.089Z,100.00
2023-04-14T02:16:40.246Z,100.00
2023-04-14T02:17:46.914Z,100.00
2023-04-14T02:18:49.918Z,100.00
2023-04-14T02:19:54.329Z,100.00
2023-04-14T02:21:00.470Z,100.00
2023-04-14T02:22:03.764Z,100.00
2023-04-14T02:23:05.773Z,100.00
2023-04-14T02:24:09.137Z,100.00
2023-04-14T02:25:12.242Z,100.00
2023-04-14T02:26:18.467Z,100.00
2023-04-14T02:27:41.067Z,100.00
2023-04-14T02:30:19.699Z,100.00
2023-04-14T02:31:24.656Z,100.00
2023-04-14T02:32:30.548Z,100.00
2023-04-14T02:33:35.264Z,100.00
2023-04-14T02:35:13.526Z,100.00
2023-04-14T02:36:19.394Z,100.00
2023-04-14T02:37:25.251Z,100.00
2023-04-14T02:38:37.307Z,100.00
2023-04-14T02:39:45.958Z,100.00
2023-04-14T02:40:49.603Z,100.00
2023-04-14T02:41:55.244Z,100.00
2023-04-14T02:43:00.678Z,100.00
2023-04-14T02:44:12.133Z,100.00
2023-04-14T02:45:21.434Z,100.00
2023-04-14T02:46:27.020Z,100.00
2023-04-14T02:47:33.240Z,100.00
2023-04-14T02:48:37.435Z,100.00
2023-04-14T02:49:45.220Z,100.00
2023-04-14T02:50:51.492Z,100.00
2023-04-14T02:51:55.582Z,100.00
2023-04-14T02:53:00.279Z,100.00
2023-04-14T02:54:04.582Z,100.00
2023-04-14T02:55:09.836Z,100.00
2023-04-14T02:56:14.382Z,100.00
2023-04-14T02:57:17.818Z,100.00
2023-04-14T02:58:20.693Z,100.00
2023-04-14T02:59:25.168Z,100.00
2023-04-14T03:00:29.056Z,100.00
2023-04-14T03:01:32.126Z,100.00
2023-04-14T03:02:35.771Z,100.00
2023-04-14T03:03:38.480Z,100.00
2023-04-14T03:04:41.722Z,100.00
2023-04-14T03:05:46.526Z,100.00
2023-04-14T03:06:50.719Z,100.00
2023-04-14T03:07:54.900Z,100.00
2023-04-14T03:08:59.664Z,100.00
2023-04-14T03:10:02.722Z,100.00
2023-04-14T03:11:06.465Z,100.00
2023-04-14T03:12:12.650Z,100.00
2023-04-14T03:13:20.525Z,100.00
2023-04-14T03:14:25.513Z,100.00
2023-04-14T03:15:29.892Z,100.00
2023-04-14T03:16:34.133Z,100.00
2023-04-14T03:17:37.398Z,100.00
2023-04-14T03:18:41.796Z,100.00
2023-04-14T03:19:45.929Z,100.00
2023-04-14T03:20:48.430Z,100.00
2023-04-14T03:21:51.972Z,100.00
2023-04-14T03:22:54.276Z,100.00
2023-04-14T03:23:58.155Z,100.00
2023-04-14T03:25:00.164Z,100.00
2023-04-14T03:26:04.487Z,100.00
2023-04-14T03:27:10.671Z,100.00
2023-04-14T03:28:14.788Z,100.00
2023-04-14T03:29:19.773Z,100.00
2023-04-14T03:30:24.946Z,100.00
2023-04-14T03:31:33.005Z,100.00
2023-04-14T03:32:38.829Z,100.00
2023-04-14T03:33:43.844Z,100.00
2023-04-14T03:34:49.811Z,100.00
2023-04-14T03:35:53.644Z,100.00
2023-04-14T03:36:57.780Z,100.00
2023-04-14T03:38:03.839Z,100.00
2023-04-14T03:39:08.325Z,100.00
2023-04-14T03:40:14.764Z,100.00
2023-04-14T03:41:19.318Z,100.00
2023-04-14T03:42:23.664Z,100.00
2023-04-14T03:43:27.646Z,100.00
2023-04-14T03:44:32.270Z,100.00
2023-04-14T03:45:36.478Z,100.00
2023-04-14T03:46:39.150Z,100.00
2023-04-14T03:47:41.633Z,100.00
2023-04-14T03:48:45.739Z,100.00
2023-04-14T03:49:49.956Z,100.00
2023-04-14T03:50:54.289Z,100.00
2023-04-14T03:51:59.986Z,100.00
2023-04-14T03:53:04.072Z,100.00
2023-04-14T03:54:07.006Z,100.00
2023-04-14T03:55:11.452Z,100.00
2023-04-14T03:56:17.048Z,100.00
2023-04-14T03:57:20.049Z,100.00
2023-04-14T03:58:23.044Z,100.00
2023-04-14T03:59:27.423Z,100.00
2023-04-14T04:00:30.296Z,100.00
2023-04-14T04:01:32.995Z,100.00
2023-04-14T04:02:37.208Z,100.00
2023-04-14T04:03:41.435Z,100.00
2023-04-14T04:04:44.188Z,100.00
2023-04-14T04:05:47.381Z,100.00
2023-04-14T04:06:50.735Z,100.00
2023-04-14T04:07:55.085Z,100.00
2023-04-14T04:09:00.140Z,100.00
2023-04-14T04:10:06.084Z,100.00
2023-04-14T04:11:09.190Z,100.00
2023-04-14T04:12:13.534Z,100.00
2023-04-14T04:13:20.050Z,100.00
2023-04-14T04:14:24.272Z,100.00
2023-04-14T04:15:28.517Z,100.00
2023-04-14T04:16:33.931Z,100.00
2023-04-14T04:17:37.930Z,100.00
2023-04-14T04:18:41.909Z,100.00
2023-04-14T04:19:46.055Z,100.00
2023-04-14T04:20:49.316Z,100.00
2023-04-14T04:21:54.551Z,100.00
2023-04-14T04:22:59.234Z,100.00
2023-04-14T04:24:04.023Z,100.00
2023-04-14T04:25:09.106Z,100.00
2023-04-14T04:26:12.974Z,100.00
2023-04-14T04:27:27.228Z,100.00
2023-04-14T04:28:21.948Z,100.00
2023-04-14T04:29:25.561Z,100.00
2023-04-14T04:30:31.942Z,100.00
2023-04-14T04:31:35.976Z,100.00
2023-04-14T04:32:41.298Z,100.00
2023-04-14T04:33:44.915Z,100.00
2023-04-14T04:34:49.744Z,100.00
2023-04-14T04:35:54.701Z,100.00
2023-04-14T04:36:59.692Z,100.00
2023-04-14T04:38:01.644Z,100.00
2023-04-14T04:39:03.772Z,100.00
2023-04-14T04:40:07.756Z,100.00
2023-04-14T04:42:40.562Z,100.00
2023-04-14T04:43:42.584Z,100.00
2023-04-14T04:44:44.486Z,100.00
2023-04-14T04:46:02.781Z,100.00
2023-04-14T04:47:05.472Z,100.00
2023-04-14T04:48:07.520Z,100.00
2023-04-14T04:49:09.639Z,100.00
2023-04-14T04:50:11.743Z,100.00
2023-04-14T04:51:14.323Z,100.00
2023-04-14T04:52:16.261Z,100.00
2023-04-14T04:53:18.537Z,100.00
2023-04-14T04:54:20.537Z,100.00
2023-04-14T04:55:22.608Z,100.00
2023-04-14T04:56:24.858Z,100.00
2023-04-14T04:57:27.619Z,100.00
2023-04-14T04:58:29.484Z,100.00
2023-04-14T04:59:31.678Z,100.00
2023-04-14T05:00:33.750Z,100.00
2023-04-14T05:01:35.763Z,100.00
2023-04-14T05:02:37.805Z,100.00
2023-04-14T05:03:40.354Z,100.00
2023-04-14T05:04:42.514Z,100.00
2023-04-14T05:05:44.568Z,100.00
2023-04-14T05:06:46.518Z,100.00
2023-04-14T05:07:48.422Z,100.00
2023-04-14T05:08:51.644Z,100.00
2023-04-14T05:09:53.644Z,100.00
2023-04-14T05:10:55.625Z,100.00
2023-04-14T05:11:57.648Z,100.00
2023-04-14T05:12:59.519Z,100.00
2023-04-14T05:14:02.650Z,100.00
2023-04-14T05:15:05.842Z,100.00
2023-04-14T05:16:10.254Z,100.00
2023-04-14T05:17:12.288Z,100.00
2023-04-14T05:18:14.276Z,100.00
2023-04-14T05:19:16.161Z,100.00
2023-04-14T05:20:20.132Z,100.00
2023-04-14T05:21:23.103Z,100.00
2023-04-14T05:22:25.041Z,100.00
2023-04-14T05:23:26.944Z,100.00
2023-04-14T05:24:29.019Z,100.00
2023-04-14T05:25:31.816Z,100.00
2023-04-14T05:26:57.528Z,100.00
2023-04-14T05:27:38.804Z,100.00
2023-04-14T05:28:41.869Z,100.00
2023-04-14T05:29:43.865Z,100.00
2023-04-14T05:30:46.041Z,100.00
2023-04-14T05:31:48.534Z,100.00
2023-04-14T05:32:50.616Z,100.00
2023-04-14T05:33:52.728Z,100.00
2023-04-14T05:34:56.054Z,100.00
2023-04-14T05:35:58.081Z,100.00
2023-04-14T05:37:01.472Z,100.00
2023-04-14T05:38:03.371Z,100.00
2023-04-14T05:39:06.512Z,100.00
2023-04-14T05:40:10.437Z,100.00
2023-04-14T05:41:12.475Z,100.00
2023-04-14T05:42:14.391Z,100.00
2023-04-14T05:43:16.326Z,100.00
2023-04-14T05:44:18.221Z,100.00
2023-04-14T05:45:20.076Z,100.00
2023-04-14T05:46:22.162Z,100.00
2023-04-14T05:47:26.517Z,100.00
2023-04-14T05:48:28.514Z,100.00
2023-04-14T05:49:30.420Z,100.00
2023-04-14T05:50:34.498Z,100.00
2023-04-14T05:51:36.440Z,100.00
2023-04-14T05:52:38.460Z,100.00
2023-04-14T05:53:40.815Z,100.00
2023-04-14T05:54:43.314Z,100.00
2023-04-14T05:55:45.522Z,100.00
2023-04-14T05:56:47.727Z,100.00
2023-04-14T05:57:49.746Z,100.00
2023-04-14T05:58:51.713Z,100.00
2023-04-14T05:59:53.639Z,100.00
2023-04-14T06:00:55.724Z,100.00
2023-04-14T06:01:58.682Z,100.00
2023-04-14T06:03:01.780Z,100.00
2023-04-14T06:04:04.675Z,100.00
2023-04-14T06:05:08.499Z,100.00
2023-04-14T06:06:11.575Z,100.00
2023-04-14T06:07:14.496Z,100.00
2023-04-14T06:08:17.987Z,100.00
2023-04-14T06:09:19.978Z,100.00
2023-04-14T06:10:22.160Z,100.00
2023-04-14T06:11:24.163Z,100.00
2023-04-14T06:12:26.116Z,100.00
2023-04-14T06:13:31.106Z,100.00
2023-04-14T06:14:32.125Z,100.00
2023-04-14T06:15:34.640Z,100.00
2023-04-14T06:16:36.913Z,100.00
2023-04-14T06:17:39.046Z,100.00
2023-04-14T06:18:41.168Z,100.00
2023-04-14T06:19:43.150Z,100.00
2023-04-14T06:20:45.538Z,100.00
2023-04-14T06:21:47.442Z,100.00
2023-04-14T06:22:49.409Z,100.00
2023-04-14T06:23:51.464Z,100.00
2023-04-14T06:24:53.509Z,100.00
2023-04-14T06:25:55.492Z,100.00
2023-04-14T06:26:57.750Z,100.00
2023-04-14T06:27:59.889Z,100.00
2023-04-14T06:29:02.135Z,100.00
2023-04-14T06:30:06.333Z,100.00
2023-04-14T06:31:08.565Z,100.00
2023-04-14T06:32:11.111Z,100.00
2023-04-14T06:33:13.314Z,100.00
2023-04-14T06:34:16.114Z,100.00
2023-04-14T06:35:30.092Z,100.00
2023-04-14T06:36:22.048Z,100.00
2023-04-14T06:37:24.068Z,100.00
2023-04-14T06:38:29.346Z,100.00
2023-04-14T06:39:31.938Z,100.00
2023-04-14T06:40:33.996Z,100.00
2023-04-14T06:41:35.982Z,100.00
2023-04-14T06:42:38.080Z,100.00
2023-04-14T06:43:40.577Z,100.00
2023-04-14T06:44:42.479Z,100.00
2023-04-14T06:45:44.506Z,100.00
2023-04-14T06:46:46.573Z,100.00
2023-04-14T06:47:48.636Z,100.00
2023-04-14T06:48:50.583Z,100.00
2023-04-14T06:49:52.444Z,100.00
2023-04-14T06:50:55.354Z,100.00
2023-04-14T06:51:58.531Z,100.00
2023-04-14T06:53:00.632Z,100.00
2023-04-14T06:54:02.740Z,100.00
2023-04-14T06:55:05.553Z,100.00
2023-04-14T06:56:07.968Z,100.00
2023-04-14T06:57:10.184Z,100.00
2023-04-14T06:58:12.107Z,100.00
2023-04-14T06:59:14.353Z,100.00
2023-04-14T07:00:17.758Z,100.00
2023-04-14T07:01:19.819Z,100.00
2023-04-14T07:02:21.982Z,100.00
2023-04-14T07:03:26.299Z,100.00
2023-04-14T07:04:28.337Z,100.00
2023-04-14T07:05:30.492Z,100.00
2023-04-14T07:06:32.803Z,100.00
2023-04-14T07:07:37.137Z,100.00
2023-04-14T07:08:40.091Z,100.00
2023-04-14T07:09:42.314Z,100.00
2023-04-14T07:10:44.805Z,100.00
2023-04-14T07:11:48.208Z,100.00
2023-04-14T07:12:50.470Z,100.00
2023-04-14T07:13:52.346Z,100.00
2023-04-14T07:14:54.231Z,100.00
2023-04-14T07:15:56.389Z,100.00
2023-04-14T07:16:58.546Z,100.00
2023-04-14T07:18:00.702Z,100.00
2023-04-14T07:19:02.674Z,100.00
2023-04-14T07:20:06.910Z,100.00
2023-04-14T07:21:08.915Z,100.00
2023-04-14T07:22:10.972Z,100.00
2023-04-14T07:23:12.838Z,100.00
2023-04-14T07:24:15.628Z,100.00
2023-04-14T07:25:18.314Z,100.00
2023-04-14T07:26:20.590Z,100.00
2023-04-14T07:27:22.812Z,100.00
2023-04-14T07:28:27.450Z,100.00
2023-04-14T07:29:29.422Z,100.00
2023-04-14T07:30:32.704Z,100.00
2023-04-14T07:31:34.833Z,100.00
2023-04-14T07:32:37.710Z,100.00
2023-04-14T07:33:40.277Z,100.00
2023-04-14T07:34:42.252Z,100.00
2023-04-14T07:36:56.174Z,100.00
2023-04-14T07:37:58.032Z,100.00
2023-04-14T07:39:00.431Z,100.00
2023-04-14T07:40:02.751Z,100.00
2023-04-14T07:41:06.574Z,100.00
2023-04-14T07:42:08.801Z,100.00
2023-04-14T07:43:11.216Z,100.00
2023-04-14T07:44:13.088Z,100.00
2023-04-14T07:45:15.256Z,100.00
2023-04-14T07:46:17.873Z,100.00
2023-04-14T07:47:19.939Z,100.00
2023-04-14T07:48:21.997Z,100.00
2023-04-14T07:49:23.986Z,100.00
2023-04-14T07:50:26.439Z,100.00
2023-04-14T07:51:28.952Z,100.00
2023-04-14T07:52:30.845Z,100.00
2023-04-14T07:53:33.630Z,100.00
2023-04-14T07:54:35.989Z,100.00
2023-04-14T07:55:38.004Z,100.00
2023-04-14T07:56:40.438Z,100.00
2023-04-14T07:57:42.794Z,100.00
2023-04-14T07:58:44.767Z,100.00
2023-04-14T07:59:46.880Z,100.00
2023-04-14T08:00:49.198Z,100.00
2023-04-14T08:01:51.250Z,100.00
2023-04-14T08:02:54.357Z,100.00
2023-04-14T08:03:56.645Z,100.00
2023-04-14T08:04:58.798Z,100.00
2023-04-14T08:06:00.864Z,100.00
2023-04-14T08:07:02.893Z,100.00
2023-04-14T08:08:05.187Z,100.00
2023-04-14T08:09:07.109Z,100.00
2023-04-14T08:10:09.280Z,100.00
2023-04-14T08:11:11.353Z,100.00
2023-04-14T08:12:13.229Z,100.00
2023-04-14T08:13:15.127Z,100.00
2023-04-14T08:14:16.989Z,100.00
2023-04-14T08:15:20.290Z,98.87
2023-04-14T08:16:22.418Z,98.87
2023-04-14T08:17:24.798Z,98.56
2023-04-14T08:18:27.878Z,100.00
2023-04-14T08:19:29.749Z,100.00
2023-04-14T08:20:34.163Z,100.00
2023-04-14T08:21:36.182Z,100.00
2023-04-14T08:22:38.855Z,100.00
2023-04-14T08:23:40.722Z,100.00
2023-04-14T08:24:42.609Z,100.00
2023-04-14T08:25:44.561Z,100.00
2023-04-14T08:26:47.054Z,100.00
2023-04-14T08:27:49.073Z,100.00
2023-04-14T08:28:51.026Z,100.00
2023-04-14T08:29:53.274Z,100.00
2023-04-14T08:30:55.884Z,100.00
2023-04-14T08:31:57.822Z,100.00
2023-04-14T08:33:00.203Z,99.35
2023-04-14T08:34:02.622Z,99.33
2023-04-14T08:35:38.891Z,98.88
2023-04-14T08:36:10.353Z,99.02
2023-04-14T08:37:12.271Z,99.10
2023-04-14T08:38:14.872Z,98.60
2023-04-14T08:39:16.764Z,98.60
2023-04-14T08:40:21.286Z,97.80
2023-04-14T08:41:24.384Z,97.32
2023-04-14T08:42:26.596Z,96.76
2023-04-14T08:43:28.873Z,97.09
2023-04-14T08:44:31.031Z,97.13
2023-04-14T08:45:33.971Z,96.84
2023-04-14T08:46:36.839Z,97.46
2023-04-14T08:47:39.813Z,97.05
2023-04-14T08:48:45.583Z,96.69
2023-04-14T08:49:54.265Z,96.63
2023-04-14T08:51:11.870Z,96.43
2023-04-14T08:52:16.375Z,95.85
2023-04-14T08:53:21.646Z,95.64
2023-04-14T08:54:24.991Z,95.11
2023-04-14T08:55:28.723Z,95.07
2023-04-14T08:56:35.666Z,95.02
2023-04-14T08:57:38.222Z,95.17
2023-04-14T08:58:40.441Z,94.93
2023-04-14T09:00:58.801Z,94.66
2023-04-14T09:02:03.741Z,95.25
2023-04-14T09:03:07.106Z,94.95
2023-04-14T09:04:10.306Z,94.89
2023-04-14T09:05:13.071Z,94.89
2023-04-14T09:06:16.324Z,94.23
2023-04-14T09:07:19.877Z,93.83
2023-04-14T09:08:21.876Z,93.78
2023-04-14T09:09:24.642Z,93.69
2023-04-14T09:10:27.680Z,95.08
2023-04-14T09:11:29.825Z,95.41
2023-04-14T09:12:33.122Z,95.61
2023-04-14T09:13:36.061Z,95.72
2023-04-14T09:14:40.196Z,96.25
2023-04-14T09:15:42.937Z,96.08
2023-04-14T09:16:45.270Z,95.54
2023-04-14T09:17:47.293Z,95.08
2023-04-14T09:18:51.721Z,94.60
2023-04-14T09:20:35.433Z,96.18
2023-04-14T09:21:29.771Z,96.48
2023-04-14T09:22:02.743Z,96.19
2023-04-14T09:23:06.881Z,95.93
2023-04-14T09:24:12.008Z,95.79
2023-04-14T09:25:18.771Z,95.19
2023-04-14T09:26:20.790Z,94.34
2023-04-14T09:27:22.641Z,94.96
2023-04-14T09:28:24.514Z,94.16
2023-04-14T09:29:27.274Z,94.73
2023-04-14T09:30:31.357Z,94.27
2023-04-14T09:31:33.740Z,94.60
2023-04-14T09:32:36.859Z,94.43
2023-04-14T09:33:41.683Z,93.67
2023-04-14T09:34:50.740Z,94.38
2023-04-14T09:35:52.750Z,93.35
2023-04-14T09:37:04.808Z,92.27
2023-04-14T09:38:06.860Z,91.45
2023-04-14T09:39:16.391Z,89.62
2023-04-14T09:40:30.344Z,89.65
2023-04-14T09:41:32.574Z,89.26
2023-04-14T09:42:41.090Z,88.37
2023-04-14T09:43:43.718Z,87.38
2023-04-14T09:44:53.544Z,86.88
2023-04-14T09:45:58.695Z,86.27
2023-04-14T09:47:03.252Z,85.95
2023-04-14T09:48:06.980Z,86.62
2023-04-14T09:49:09.000Z,85.97
2023-04-14T09:50:12.149Z,86.71
2023-04-14T09:51:14.170Z,87.26
2023-04-14T09:52:16.080Z,86.76
2023-04-14T09:53:26.703Z,85.84
2023-04-14T09:54:28.660Z,85.11
2023-04-14T09:55:30.517Z,84.07
2023-04-14T09:56:32.689Z,84.10
2023-04-14T09:57:34.862Z,84.21
2023-04-14T09:58:42.443Z,84.02
2023-04-14T09:59:45.912Z,84.50
2023-04-14T10:00:50.229Z,85.18
2023-04-14T10:01:52.360Z,85.42
2023-04-14T10:02:56.580Z,84.41
2023-04-14T10:04:01.433Z,84.89
2023-04-14T10:05:06.026Z,84.97
2023-04-14T10:06:14.708Z,84.80
2023-04-14T10:07:18.498Z,84.75
2023-04-14T10:08:21.642Z,84.57
2023-04-14T10:09:25.305Z,85.51
2023-04-14T10:10:27.443Z,85.70
2023-04-14T10:11:31.407Z,86.13
2023-04-14T10:12:33.578Z,86.88
2023-04-14T10:13:35.549Z,87.09
2023-04-14T10:14:38.136Z,87.04
2023-04-14T10:15:41.279Z,87.41
2023-04-14T10:16:44.107Z,86.92
2023-04-14T10:17:46.777Z,86.21
2023-04-14T10:18:49.625Z,85.77
2023-04-14T10:19:51.721Z,85.46
2023-04-14T10:20:55.183Z,85.54
2023-04-14T10:21:57.088Z,85.57
2023-04-14T10:22:59.856Z,85.39
2023-04-14T10:24:02.621Z,85.48
2023-04-14T10:25:06.155Z,86.10
2023-04-14T10:26:10.551Z,86.46
2023-04-14T10:27:13.126Z,86.30
2023-04-14T10:28:16.312Z,86.75
2023-04-14T10:29:20.230Z,86.75
2023-04-14T10:30:22.578Z,87.16
2023-04-14T10:31:27.898Z,87.28
2023-04-14T10:32:34.157Z,87.37
2023-04-14T10:33:36.802Z,87.47
2023-04-14T10:34:44.300Z,86.89
2023-04-14T10:35:50.396Z,86.53
2023-04-14T10:36:52.590Z,86.74
2023-04-14T10:37:54.581Z,86.98
2023-04-14T10:39:01.717Z,87.57
2023-04-14T10:40:07.453Z,86.93
2023-04-14T10:41:11.374Z,86.83
2023-04-14T10:42:13.371Z,85.87
2023-04-14T10:43:15.354Z,86.15
2023-04-14T10:44:31.762Z,86.26
2023-04-14T10:45:33.960Z,86.16
2023-04-14T10:46:43.212Z,86.46
2023-04-14T10:47:46.062Z,87.38
2023-04-14T10:48:50.037Z,87.60
2023-04-14T10:49:55.491Z,87.77
2023-04-14T10:51:01.101Z,87.32
2023-04-14T10:52:15.866Z,87.10
2023-04-14T10:53:19.518Z,87.42
2023-04-14T10:54:21.519Z,88.41
2023-04-14T10:55:26.705Z,88.52
2023-04-14T10:56:29.907Z,88.43
2023-04-14T10:57:38.812Z,88.03
2023-04-14T10:58:43.459Z,87.43
2023-04-14T10:59:46.468Z,87.75
2023-04-14T11:00:48.512Z,88.03
2023-04-14T11:01:53.567Z,88.07
2023-04-14T11:03:04.155Z,87.94
2023-04-14T11:04:17.612Z,87.94
2023-04-14T11:05:20.764Z,87.90
2023-04-14T11:06:46.539Z,87.79
2023-04-14T11:07:50.963Z,87.58
2023-04-14T11:08:54.186Z,87.94
2023-04-14T11:10:18.330Z,87.77
2023-04-14T11:11:24.263Z,87.90
2023-04-14T11:12:28.241Z,87.51
2023-04-14T11:13:32.855Z,87.64
2023-04-14T11:14:35.192Z,87.37
2023-04-14T11:15:51.530Z,87.89
2023-04-14T11:17:04.509Z,87.40
2023-04-14T11:18:15.421Z,87.06
2023-04-14T11:19:17.540Z,86.89
2023-04-14T11:20:21.970Z,87.52
2023-04-14T11:21:24.085Z,87.44
2023-04-14T11:22:46.371Z,86.98
2023-04-14T11:23:48.592Z,86.67
2023-04-14T11:24:50.511Z,87.14
2023-04-14T11:25:52.987Z,86.72
2023-04-14T11:26:56.233Z,86.24
2023-04-14T11:28:02.756Z,86.47
2023-04-14T11:29:07.768Z,86.31
2023-04-14T11:30:18.894Z,86.04
2023-04-14T11:31:24.704Z,86.51
2023-04-14T11:32:26.884Z,86.46
2023-04-14T11:33:35.125Z,86.42
2023-04-14T11:34:37.041Z,85.60
2023-04-14T11:35:41.279Z,85.84
2023-04-14T11:36:43.365Z,85.88
2023-04-14T11:37:46.247Z,86.04
2023-04-14T11:38:52.086Z,85.76
2023-04-14T11:39:54.190Z,85.75
2023-04-14T11:40:56.830Z,85.98
2023-04-14T11:42:00.092Z,86.42
2023-04-14T11:43:02.128Z,86.56
2023-04-14T11:44:04.234Z,86.30
2023-04-14T11:45:07.127Z,86.11
2023-04-14T11:46:09.427Z,86.47
2023-04-14T11:47:11.398Z,86.85
2023-04-14T11:48:16.179Z,87.63
2023-04-14T11:49:18.439Z,86.79
2023-04-14T11:50:21.433Z,86.83
2023-04-14T11:51:32.865Z,87.35
2023-04-14T11:52:35.102Z,87.40
2023-04-14T11:53:37.088Z,86.90
2023-04-14T11:54:39.587Z,86.77
2023-04-14T11:56:54.475Z,85.64
2023-04-14T11:57:56.527Z,85.05
2023-04-14T11:59:01.213Z,84.17
2023-04-14T12:00:04.965Z,83.72
2023-04-14T12:01:08.448Z,82.92
2023-04-14T12:02:16.777Z,82.81
2023-04-14T12:03:20.086Z,82.82
2023-04-14T12:04:22.443Z,82.62
2023-04-14T12:05:25.023Z,82.89
2023-04-14T12:06:27.543Z,83.30
2023-04-14T12:07:29.498Z,83.53
2023-04-14T12:08:33.370Z,83.88
2023-04-14T12:09:39.298Z,83.92
2023-04-14T12:10:41.908Z,84.06
2023-04-14T12:11:55.297Z,84.51
2023-04-14T12:13:10.156Z,84.73
2023-04-14T12:14:12.628Z,84.83
2023-04-14T12:15:14.992Z,84.64
2023-04-14T12:16:18.158Z,84.44
2023-04-14T12:17:21.547Z,84.51
2023-04-14T12:18:24.072Z,84.46
2023-04-14T12:19:25.997Z,84.67
2023-04-14T12:20:29.360Z,85.08
2023-04-14T12:21:31.694Z,85.33
2023-04-14T12:22:33.646Z,85.19
2023-04-14T12:23:37.594Z,85.61
2023-04-14T12:24:43.054Z,85.61
2023-04-14T12:25:47.256Z,85.67
2023-04-14T12:26:49.341Z,85.37
2023-04-14T12:27:51.425Z,85.30
2023-04-14T12:28:56.958Z,85.59
2023-04-14T12:29:58.898Z,85.76
2023-04-14T12:31:02.968Z,85.82
2023-04-14T12:32:11.941Z,86.62
2023-04-14T12:33:13.965Z,86.14
2023-04-14T12:34:17.838Z,86.21
2023-04-14T12:35:23.154Z,86.28
2023-04-14T12:36:29.780Z,86.28
2023-04-14T12:37:29.085Z,85.92
2023-04-14T12:38:31.560Z,86.16
2023-04-14T12:39:51.333Z,86.45
2023-04-14T12:40:56.115Z,85.93
2023-04-14T12:41:58.188Z,85.12
2023-04-14T12:43:02.082Z,85.12
2023-04-14T12:44:13.798Z,85.19
2023-04-14T12:45:16.339Z,84.83
2023-04-14T12:46:23.376Z,84.81
2023-04-14T12:47:26.988Z,84.78
2023-04-14T12:48:40.312Z,84.65
2023-04-14T12:49:42.230Z,84.62
2023-04-14T12:50:45.029Z,84.99
2023-04-14T12:51:46.914Z,85.22
2023-04-14T12:52:48.878Z,84.80
2023-04-14T12:53:50.847Z,84.30
2023-04-14T12:54:54.092Z,84.45
2023-04-14T12:56:08.037Z,84.56
2023-04-14T12:57:10.029Z,84.52
2023-04-14T12:58:11.906Z,84.52
2023-04-14T12:59:13.774Z,84.96
2023-04-14T13:00:16.638Z,84.77
2023-04-14T13:01:20.217Z,84.38
2023-04-14T13:02:22.992Z,84.68
2023-04-14T13:03:27.470Z,84.70
2023-04-14T13:04:29.827Z,84.82
2023-04-14T13:05:31.927Z,85.14
2023-04-14T13:06:34.139Z,85.36
2023-04-14T13:07:36.960Z,85.50
2023-04-14T13:08:44.498Z,85.64
2023-04-14T13:09:46.620Z,85.42
2023-04-14T13:10:48.725Z,85.39
2023-04-14T13:11:50.672Z,85.00
2023-04-14T13:12:53.355Z,85.04
2023-04-14T13:13:55.638Z,84.84
2023-04-14T13:14:57.739Z,85.44
2023-04-14T13:16:21.862Z,85.77
2023-04-14T13:17:03.573Z,85.54
2023-04-14T13:18:05.639Z,84.89
2023-04-14T13:19:07.669Z,84.93
2023-04-14T13:20:11.309Z,85.18
2023-04-14T13:21:13.671Z,84.94
2023-04-14T13:22:15.915Z,85.04
2023-04-14T13:23:17.985Z,84.82
2023-04-14T13:24:19.860Z,84.74
2023-04-14T13:25:21.905Z,84.68
2023-04-14T13:26:24.121Z,84.37
2023-04-14T13:27:27.235Z,84.17
2023-04-14T13:28:29.209Z,84.59
2023-04-14T13:29:32.303Z,84.90
2023-04-14T13:30:34.279Z,85.83
2023-04-14T13:31:36.253Z,85.74
2023-04-14T13:32:38.308Z,85.54
2023-04-14T13:33:40.249Z,85.61
2023-04-14T13:34:42.537Z,85.55
2023-04-14T13:35:44.732Z,85.25
2023-04-14T13:36:46.807Z,85.25